createdAt,value
2022-11-16T00:00:05.645Z,631.68
2022-11-16T00:00:11.202Z,631.71
2022-11-16T00:00:21.198Z,631.66
2022-11-16T00:00:31.200Z,631.64
2022-11-16T00:00:41.199Z,631.80
2022-11-16T00:00:51.200Z,631.84
2022-11-16T00:01:01.199Z,631.97
2022-11-16T00:01:11.199Z,631.78
2022-11-16T00:01:21.207Z,631.62
2022-11-16T00:01:31.185Z,631.77
2022-11-16T00:01:41.261Z,631.88
2022-11-16T00:01:51.250Z,631.90
2022-11-16T00:02:01.256Z,632.03
2022-11-16T00:02:11.256Z,632.04
2022-11-16T00:02:21.261Z,631.96
2022-11-16T00:02:31.235Z,631.96
2022-11-16T00:02:41.212Z,631.94
2022-11-16T00:02:51.211Z,631.93
2022-11-16T00:03:01.211Z,632.05
2022-11-16T00:03:11.214Z,631.99
2022-11-16T00:03:21.217Z,631.95
2022-11-16T00:03:31.215Z,632.06
2022-11-16T00:03:41.216Z,632.10
2022-11-16T00:03:51.217Z,632.08
2022-11-16T00:04:01.217Z,632.15
2022-11-16T00:04:11.217Z,632.13
2022-11-16T00:04:21.218Z,632.17
2022-11-16T00:04:31.220Z,632.24
2022-11-16T00:04:41.223Z,632.37
2022-11-16T00:04:51.222Z,632.46
2022-11-16T00:05:01.227Z,632.45
2022-11-16T00:05:11.223Z,632.37
2022-11-16T00:05:27.050Z,632.29
2022-11-16T00:05:32.226Z,632.23
2022-11-16T00:05:41.228Z,632.18
2022-11-16T00:05:51.228Z,632.36
2022-11-16T00:06:01.229Z,632.25
2022-11-16T00:06:11.231Z,632.41
2022-11-16T00:06:21.229Z,632.34
2022-11-16T00:06:31.233Z,632.27
2022-11-16T00:06:41.237Z,632.30
2022-11-16T00:06:51.246Z,632.39
2022-11-16T00:07:01.310Z,632.36
2022-11-16T00:07:11.304Z,632.35
2022-11-16T00:07:21.357Z,632.24
2022-11-16T00:07:31.374Z,632.13
2022-11-16T00:07:41.237Z,632.01
2022-11-16T00:07:51.237Z,632.18
2022-11-16T00:08:01.238Z,632.42
2022-11-16T00:08:11.239Z,632.28
2022-11-16T00:08:21.253Z,632.24
2022-11-16T00:08:31.523Z,632.16
2022-11-16T00:08:41.249Z,632.29
2022-11-16T00:08:51.245Z,632.39
2022-11-16T00:09:01.246Z,632.47
2022-11-16T00:09:11.246Z,632.47
2022-11-16T00:09:21.246Z,632.36
2022-11-16T00:09:31.247Z,632.18
2022-11-16T00:09:41.266Z,632.46
2022-11-16T00:09:51.251Z,632.36
2022-11-16T00:10:01.250Z,632.39
2022-11-16T00:10:11.252Z,632.58
2022-11-16T00:10:21.250Z,632.51
2022-11-16T00:10:31.252Z,632.40
2022-11-16T00:10:41.237Z,632.47
2022-11-16T00:10:51.256Z,632.41
2022-11-16T00:11:01.257Z,632.48
2022-11-16T00:11:11.254Z,632.46
2022-11-16T00:11:21.260Z,632.64
2022-11-16T00:11:31.258Z,632.77
2022-11-16T00:11:41.257Z,632.75
2022-11-16T00:11:51.261Z,632.72
2022-11-16T00:12:01.266Z,632.66
2022-11-16T00:12:11.270Z,632.71
2022-11-16T00:12:21.259Z,632.71
2022-11-16T00:12:31.260Z,632.72
2022-11-16T00:12:41.262Z,632.76
2022-11-16T00:12:51.264Z,632.65
2022-11-16T00:13:01.263Z,632.67
2022-11-16T00:13:11.266Z,632.67
2022-11-16T00:13:21.279Z,632.68
2022-11-16T00:13:31.266Z,632.71
2022-11-16T00:13:41.269Z,632.74
2022-11-16T00:13:51.267Z,632.77
2022-11-16T00:14:01.271Z,632.69
2022-11-16T00:14:11.269Z,632.61
2022-11-16T00:14:21.271Z,632.62
2022-11-16T00:14:31.255Z,632.67
2022-11-16T00:14:41.272Z,632.70
2022-11-16T00:14:51.275Z,632.68
2022-11-16T00:15:01.272Z,632.73
2022-11-16T00:15:11.274Z,632.70
2022-11-16T00:15:21.303Z,632.66
2022-11-16T00:15:31.280Z,632.63
2022-11-16T00:15:41.260Z,632.74
2022-11-16T00:15:51.258Z,632.72
2022-11-16T00:16:01.276Z,632.75
2022-11-16T00:16:11.277Z,632.69
2022-11-16T00:16:21.279Z,632.72
2022-11-16T00:16:31.281Z,632.77
2022-11-16T00:16:41.280Z,632.78
2022-11-16T00:16:51.282Z,632.73
2022-11-16T00:17:01.284Z,632.78
2022-11-16T00:17:11.283Z,632.74
2022-11-16T00:17:21.285Z,632.75
2022-11-16T00:17:31.285Z,632.79
2022-11-16T00:17:41.287Z,632.72
2022-11-16T00:17:51.294Z,632.65
2022-11-16T00:18:01.270Z,632.75
2022-11-16T00:18:11.289Z,632.84
2022-11-16T00:18:21.300Z,632.75
2022-11-16T00:18:31.569Z,632.64
2022-11-16T00:18:41.291Z,632.64
2022-11-16T00:18:51.292Z,632.68
2022-11-16T00:19:01.291Z,632.82
2022-11-16T00:19:11.292Z,632.70
2022-11-16T00:19:21.291Z,632.67
2022-11-16T00:19:31.300Z,632.69
2022-11-16T00:19:41.294Z,632.69
2022-11-16T00:19:51.278Z,632.67
2022-11-16T00:20:01.281Z,632.72
2022-11-16T00:20:11.298Z,632.77
2022-11-16T00:20:21.280Z,632.79
2022-11-16T00:20:31.299Z,632.82
2022-11-16T00:20:41.303Z,632.86
2022-11-16T00:20:51.301Z,632.96
2022-11-16T00:21:01.303Z,632.92
2022-11-16T00:21:11.304Z,632.92
2022-11-16T00:21:21.306Z,633.09
2022-11-16T00:21:31.304Z,633.12
2022-11-16T00:21:41.305Z,633.06
2022-11-16T00:21:51.306Z,633.10
2022-11-16T00:22:01.309Z,633.10
2022-11-16T00:22:11.309Z,633.00
2022-11-16T00:22:21.318Z,632.93
2022-11-16T00:22:31.307Z,632.93
2022-11-16T00:22:41.291Z,632.92
2022-11-16T00:22:51.308Z,632.89
2022-11-16T00:23:01.312Z,632.99
2022-11-16T00:23:11.292Z,632.93
2022-11-16T00:23:21.347Z,633.07
2022-11-16T00:23:31.323Z,633.18
2022-11-16T00:23:41.314Z,633.22
2022-11-16T00:23:51.312Z,633.23
2022-11-16T00:24:01.313Z,633.32
2022-11-16T00:24:11.316Z,633.29
2022-11-16T00:24:21.321Z,633.23
2022-11-16T00:24:31.321Z,633.13
2022-11-16T00:24:41.321Z,633.17
2022-11-16T00:24:51.319Z,633.10
2022-11-16T00:25:01.321Z,633.09
2022-11-16T00:25:11.322Z,633.12
2022-11-16T00:25:21.323Z,633.14
2022-11-16T00:25:31.324Z,633.02
2022-11-16T00:25:41.325Z,633.22
2022-11-16T00:25:51.325Z,633.36
2022-11-16T00:26:01.328Z,633.36
2022-11-16T00:26:11.329Z,633.42
2022-11-16T00:26:21.328Z,633.23
2022-11-16T00:26:31.332Z,633.22
2022-11-16T00:26:41.329Z,633.26
2022-11-16T00:26:51.332Z,633.27
2022-11-16T00:27:01.332Z,633.19
2022-11-16T00:27:11.330Z,633.16
2022-11-16T00:27:21.338Z,633.13
2022-11-16T00:27:31.335Z,633.25
2022-11-16T00:27:41.336Z,633.34
2022-11-16T00:27:51.336Z,633.28
2022-11-16T00:28:01.342Z,633.28
2022-11-16T00:28:11.339Z,633.28
2022-11-16T00:28:21.341Z,633.37
2022-11-16T00:28:31.689Z,633.45
2022-11-16T00:28:41.348Z,633.49
2022-11-16T00:28:51.348Z,633.41
2022-11-16T00:29:01.346Z,633.45
2022-11-16T00:29:11.350Z,633.49
2022-11-16T00:29:21.350Z,633.48
2022-11-16T00:29:31.355Z,633.53
2022-11-16T00:29:41.354Z,633.49
2022-11-16T00:29:51.336Z,633.49
2022-11-16T00:30:01.355Z,633.52
2022-11-16T00:30:11.355Z,633.67
2022-11-16T00:30:21.359Z,633.68
2022-11-16T00:30:31.357Z,633.63
2022-11-16T00:30:41.360Z,633.56
2022-11-16T00:30:51.361Z,633.65
2022-11-16T00:31:01.361Z,633.80
2022-11-16T00:31:11.361Z,633.72
2022-11-16T00:31:21.363Z,633.70
2022-11-16T00:31:31.366Z,633.73
2022-11-16T00:31:41.366Z,633.74
2022-11-16T00:31:51.366Z,633.77
2022-11-16T00:32:01.368Z,633.80
2022-11-16T00:32:11.369Z,633.96
2022-11-16T00:32:21.370Z,633.93
2022-11-16T00:32:31.372Z,633.83
2022-11-16T00:32:41.371Z,633.89
2022-11-16T00:32:51.369Z,633.82
2022-11-16T00:33:01.381Z,633.75
2022-11-16T00:33:11.373Z,633.65
2022-11-16T00:33:21.385Z,633.87
2022-11-16T00:33:31.374Z,633.81
2022-11-16T00:33:41.358Z,633.89
2022-11-16T00:33:51.375Z,633.99
2022-11-16T00:34:01.376Z,634.14
2022-11-16T00:34:11.376Z,633.99
2022-11-16T00:34:21.384Z,633.97
2022-11-16T00:34:31.381Z,634.07
2022-11-16T00:34:41.381Z,634.12
2022-11-16T00:34:51.384Z,634.00
2022-11-16T00:35:01.383Z,633.97
2022-11-16T00:35:11.384Z,633.89
2022-11-16T00:35:21.366Z,633.89
2022-11-16T00:35:31.383Z,634.06
2022-11-16T00:35:41.385Z,634.26
2022-11-16T00:35:51.386Z,634.35
2022-11-16T00:36:01.393Z,634.26
2022-11-16T00:36:11.388Z,634.34
2022-11-16T00:36:21.391Z,634.27
2022-11-16T00:36:31.392Z,634.27
2022-11-16T00:36:41.390Z,634.36
2022-11-16T00:36:51.395Z,634.40
2022-11-16T00:37:01.394Z,634.45
2022-11-16T00:37:11.400Z,634.39
2022-11-16T00:37:21.399Z,634.47
2022-11-16T00:37:31.392Z,634.39
2022-11-16T00:37:41.399Z,634.56
2022-11-16T00:37:51.399Z,634.61
2022-11-16T00:38:01.399Z,634.45
2022-11-16T00:38:11.405Z,634.51
2022-11-16T00:38:21.414Z,634.54
2022-11-16T00:38:31.745Z,634.66
2022-11-16T00:38:41.408Z,634.72
2022-11-16T00:38:51.403Z,634.69
2022-11-16T00:39:01.404Z,634.73
2022-11-16T00:39:11.409Z,634.84
2022-11-16T00:39:21.406Z,634.81
2022-11-16T00:39:31.408Z,634.91
2022-11-16T00:39:41.406Z,634.93
2022-11-16T00:39:51.408Z,634.88
2022-11-16T00:40:01.417Z,634.93
2022-11-16T00:40:11.411Z,634.96
2022-11-16T00:40:21.409Z,634.97
2022-11-16T00:40:31.415Z,634.99
2022-11-16T00:40:41.416Z,635.10
2022-11-16T00:40:51.444Z,635.12
2022-11-16T00:41:01.415Z,634.92
2022-11-16T00:41:11.419Z,635.00
2022-11-16T00:41:21.420Z,635.00
2022-11-16T00:41:31.419Z,634.91
2022-11-16T00:41:41.402Z,634.97
2022-11-16T00:41:51.419Z,635.04
2022-11-16T00:42:01.420Z,635.01
2022-11-16T00:42:11.427Z,635.01
2022-11-16T00:42:21.423Z,634.87
2022-11-16T00:42:31.425Z,634.84
2022-11-16T00:42:41.425Z,635.06
2022-11-16T00:42:51.423Z,635.19
2022-11-16T00:43:01.427Z,635.06
2022-11-16T00:43:11.425Z,635.00
2022-11-16T00:43:21.440Z,634.97
2022-11-16T00:43:31.427Z,634.87
2022-11-16T00:43:41.413Z,635.01
2022-11-16T00:43:51.430Z,634.99
2022-11-16T00:44:01.443Z,634.95
2022-11-16T00:44:11.430Z,635.03
2022-11-16T00:44:21.433Z,634.98
2022-11-16T00:44:31.432Z,635.02
2022-11-16T00:44:41.432Z,635.07
2022-11-16T00:44:51.433Z,634.95
2022-11-16T00:45:01.439Z,634.94
2022-11-16T00:45:11.438Z,634.87
2022-11-16T00:45:21.436Z,635.08
2022-11-16T00:45:31.437Z,634.93
2022-11-16T00:45:41.440Z,635.12
2022-11-16T00:45:51.441Z,635.15
2022-11-16T00:46:01.443Z,635.05
2022-11-16T00:46:11.423Z,635.12
2022-11-16T00:46:21.442Z,635.26
2022-11-16T00:46:31.445Z,635.12
2022-11-16T00:46:41.446Z,634.90
2022-11-16T00:46:51.445Z,634.98
2022-11-16T00:47:01.446Z,635.00
2022-11-16T00:47:11.429Z,635.06
2022-11-16T00:47:21.451Z,635.06
2022-11-16T00:47:31.449Z,635.14
2022-11-16T00:47:41.451Z,635.01
2022-11-16T00:47:54.208Z,634.95
2022-11-16T00:48:02.456Z,635.06
2022-11-16T00:48:11.453Z,635.00
2022-11-16T00:48:21.468Z,634.95
2022-11-16T00:48:31.849Z,634.89
2022-11-16T00:48:41.457Z,634.88
2022-11-16T00:48:51.458Z,634.85
2022-11-16T00:49:01.441Z,634.81
2022-11-16T00:49:11.445Z,634.81
2022-11-16T00:49:21.463Z,634.71
2022-11-16T00:49:31.461Z,634.79
2022-11-16T00:49:41.463Z,634.88
2022-11-16T00:49:51.464Z,634.88
2022-11-16T00:50:01.492Z,635.08
2022-11-16T00:50:11.473Z,635.09
2022-11-16T00:50:21.467Z,634.85
2022-11-16T00:50:31.469Z,634.92
2022-11-16T00:50:41.478Z,634.97
2022-11-16T00:50:51.472Z,634.94
2022-11-16T00:51:01.471Z,635.11
2022-11-16T00:51:11.454Z,634.88
2022-11-16T00:51:21.471Z,635.15
2022-11-16T00:51:31.473Z,635.17
2022-11-16T00:51:41.479Z,635.16
2022-11-16T00:51:51.474Z,635.09
2022-11-16T00:52:01.475Z,634.98
2022-11-16T00:52:11.477Z,635.18
2022-11-16T00:52:21.477Z,635.04
2022-11-16T00:52:31.480Z,635.08
2022-11-16T00:52:41.485Z,635.22
2022-11-16T00:52:51.479Z,635.12
2022-11-16T00:53:01.479Z,635.10
2022-11-16T00:53:11.508Z,635.19
2022-11-16T00:53:21.514Z,635.26
2022-11-16T00:53:31.479Z,635.14
2022-11-16T00:53:41.481Z,635.14
2022-11-16T00:53:51.465Z,635.15
2022-11-16T00:54:01.483Z,635.13
2022-11-16T00:54:11.485Z,635.20
2022-11-16T00:54:21.483Z,635.28
2022-11-16T00:54:31.482Z,635.14
2022-11-16T00:54:41.488Z,635.08
2022-11-16T00:54:51.487Z,635.43
2022-11-16T00:55:01.489Z,635.32
2022-11-16T00:55:11.490Z,635.34
2022-11-16T00:55:21.488Z,635.40
2022-11-16T00:55:31.490Z,635.36
2022-11-16T00:55:41.517Z,635.39
2022-11-16T00:55:51.493Z,635.47
2022-11-16T00:56:01.494Z,635.41
2022-11-16T00:56:11.494Z,635.36
2022-11-16T00:56:21.494Z,635.48
2022-11-16T00:56:31.496Z,635.38
2022-11-16T00:56:41.503Z,635.40
2022-11-16T00:56:51.497Z,635.47
2022-11-16T00:57:01.497Z,635.45
2022-11-16T00:57:11.501Z,635.33
2022-11-16T00:57:21.500Z,635.27
2022-11-16T00:57:31.502Z,635.17
2022-11-16T00:57:41.512Z,635.26
2022-11-16T00:57:51.505Z,635.26
2022-11-16T00:58:01.505Z,635.29
2022-11-16T00:58:11.502Z,635.42
2022-11-16T00:58:21.503Z,635.37
2022-11-16T00:58:31.872Z,635.49
2022-11-16T00:58:41.505Z,635.51
2022-11-16T00:58:51.507Z,635.41
2022-11-16T00:59:01.513Z,635.35
2022-11-16T00:59:11.515Z,635.40
2022-11-16T00:59:21.509Z,635.44
2022-11-16T00:59:31.520Z,635.44
2022-11-16T00:59:41.512Z,635.53
2022-11-16T00:59:51.516Z,635.42
2022-11-16T01:00:01.525Z,635.23
2022-11-16T01:00:11.517Z,635.40
2022-11-16T01:00:21.516Z,635.40
2022-11-16T01:00:31.517Z,635.32
2022-11-16T01:00:41.518Z,635.31
2022-11-16T01:00:51.545Z,635.29
2022-11-16T01:01:01.588Z,635.26
2022-11-16T01:01:11.580Z,635.45
2022-11-16T01:01:21.580Z,635.39
2022-11-16T01:01:31.561Z,635.43
2022-11-16T01:01:41.590Z,635.43
2022-11-16T01:01:51.579Z,635.47
2022-11-16T01:02:01.523Z,635.47
2022-11-16T01:02:11.526Z,635.31
2022-11-16T01:02:21.527Z,635.36
2022-11-16T01:02:31.525Z,635.50
2022-11-16T01:02:41.527Z,635.68
2022-11-16T01:02:51.529Z,635.61
2022-11-16T01:03:01.530Z,635.62
2022-11-16T01:03:11.529Z,635.55
2022-11-16T01:03:21.547Z,635.61
2022-11-16T01:03:31.533Z,635.69
2022-11-16T01:03:41.512Z,635.61
2022-11-16T01:03:51.534Z,635.67
2022-11-16T01:04:01.535Z,635.67
2022-11-16T01:04:11.534Z,635.72
2022-11-16T01:04:21.536Z,635.66
2022-11-16T01:04:31.536Z,635.71
2022-11-16T01:04:41.537Z,635.85
2022-11-16T01:04:51.537Z,635.74
2022-11-16T01:05:01.540Z,635.68
2022-11-16T01:05:11.537Z,635.75
2022-11-16T01:05:21.538Z,635.70
2022-11-16T01:05:31.522Z,635.67
2022-11-16T01:05:41.540Z,635.55
2022-11-16T01:05:51.541Z,635.69
2022-11-16T01:06:01.540Z,635.73
2022-11-16T01:06:11.542Z,635.83
2022-11-16T01:06:21.640Z,635.81
2022-11-16T01:06:31.546Z,635.71
2022-11-16T01:06:41.546Z,635.75
2022-11-16T01:06:51.602Z,635.93
2022-11-16T01:07:01.578Z,635.92
2022-11-16T01:07:11.588Z,635.80
2022-11-16T01:07:21.590Z,635.84
2022-11-16T01:07:31.660Z,635.76
2022-11-16T01:07:41.533Z,635.81
2022-11-16T01:07:51.551Z,635.84
2022-11-16T01:08:01.551Z,635.89
2022-11-16T01:08:11.552Z,635.77
2022-11-16T01:08:21.546Z,635.81
2022-11-16T01:08:31.765Z,635.71
2022-11-16T01:08:41.552Z,635.61
2022-11-16T01:08:51.555Z,635.74
2022-11-16T01:09:01.559Z,635.57
2022-11-16T01:09:11.562Z,635.56
2022-11-16T01:09:21.559Z,635.61
2022-11-16T01:09:31.566Z,635.77
2022-11-16T01:09:41.561Z,635.67
2022-11-16T01:09:51.560Z,635.74
2022-11-16T01:10:01.563Z,635.73
2022-11-16T01:10:11.565Z,635.80
2022-11-16T01:10:21.565Z,635.83
2022-11-16T01:10:31.564Z,635.89
2022-11-16T01:10:41.575Z,636.00
2022-11-16T01:10:51.564Z,635.89
2022-11-16T01:11:01.568Z,635.95
2022-11-16T01:11:11.570Z,635.92
2022-11-16T01:11:21.611Z,635.88
2022-11-16T01:11:31.581Z,635.93
2022-11-16T01:11:41.577Z,635.99
2022-11-16T01:11:51.578Z,636.04
2022-11-16T01:12:01.600Z,636.05
2022-11-16T01:12:11.577Z,636.01
2022-11-16T01:12:21.577Z,636.01
2022-11-16T01:12:31.580Z,635.90
2022-11-16T01:12:41.580Z,635.91
2022-11-16T01:12:51.581Z,635.94
2022-11-16T01:13:01.582Z,636.02
2022-11-16T01:13:11.583Z,636.07
2022-11-16T01:13:21.594Z,636.19
2022-11-16T01:13:31.586Z,636.21
2022-11-16T01:13:41.588Z,636.19
2022-11-16T01:13:51.570Z,636.19
2022-11-16T01:14:01.589Z,636.28
2022-11-16T01:14:11.589Z,636.24
2022-11-16T01:14:21.589Z,636.22
2022-11-16T01:14:31.590Z,636.18
2022-11-16T01:14:41.592Z,636.17
2022-11-16T01:14:51.593Z,636.28
2022-11-16T01:15:01.593Z,636.26
2022-11-16T01:15:11.598Z,636.30
2022-11-16T01:15:21.593Z,636.46
2022-11-16T01:15:31.597Z,636.35
2022-11-16T01:15:41.596Z,636.36
2022-11-16T01:15:51.598Z,636.28
2022-11-16T01:16:01.600Z,636.42
2022-11-16T01:16:11.600Z,636.49
2022-11-16T01:16:21.602Z,636.35
2022-11-16T01:16:31.603Z,636.46
2022-11-16T01:16:41.602Z,636.52
2022-11-16T01:16:51.604Z,636.62
2022-11-16T01:17:01.604Z,636.59
2022-11-16T01:17:11.605Z,636.64
2022-11-16T01:17:21.607Z,636.65
2022-11-16T01:17:31.607Z,636.70
2022-11-16T01:17:41.608Z,636.68
2022-11-16T01:17:51.611Z,636.57
2022-11-16T01:18:01.608Z,636.60
2022-11-16T01:18:11.617Z,636.55
2022-11-16T01:18:21.622Z,636.60
2022-11-16T01:18:32.047Z,636.62
2022-11-16T01:18:41.610Z,636.62
2022-11-16T01:18:51.619Z,636.76
2022-11-16T01:19:01.597Z,636.70
2022-11-16T01:19:11.615Z,636.65
2022-11-16T01:19:21.622Z,636.69
2022-11-16T01:19:31.615Z,636.70
2022-11-16T01:19:41.617Z,636.81
2022-11-16T01:19:51.621Z,636.80
2022-11-16T01:20:01.621Z,636.78
2022-11-16T01:20:11.621Z,636.79
2022-11-16T01:20:21.621Z,636.86
2022-11-16T01:20:31.623Z,636.95
2022-11-16T01:20:41.625Z,636.95
2022-11-16T01:20:51.625Z,636.86
2022-11-16T01:21:01.626Z,637.03
2022-11-16T01:21:11.626Z,636.91
2022-11-16T01:21:21.629Z,637.01
2022-11-16T01:21:31.631Z,636.97
2022-11-16T01:21:41.635Z,636.93
2022-11-16T01:21:51.631Z,636.96
2022-11-16T01:22:01.635Z,636.91
2022-11-16T01:22:11.617Z,637.01
2022-11-16T01:22:21.638Z,637.04
2022-11-16T01:22:31.638Z,637.01
2022-11-16T01:22:41.636Z,637.08
2022-11-16T01:22:51.639Z,637.09
2022-11-16T01:23:01.638Z,637.05
2022-11-16T01:23:11.643Z,637.14
2022-11-16T01:23:21.654Z,637.19
2022-11-16T01:23:31.643Z,637.10
2022-11-16T01:23:41.644Z,637.21
2022-11-16T01:23:51.647Z,637.21
2022-11-16T01:24:01.645Z,637.19
2022-11-16T01:24:11.646Z,637.17
2022-11-16T01:24:21.648Z,637.24
2022-11-16T01:24:31.679Z,637.41
2022-11-16T01:24:41.650Z,637.44
2022-11-16T01:24:51.651Z,637.38
2022-11-16T01:25:01.652Z,637.48
2022-11-16T01:25:11.654Z,637.44
2022-11-16T01:25:21.659Z,637.39
2022-11-16T01:25:31.658Z,637.47
2022-11-16T01:25:41.656Z,637.43
2022-11-16T01:25:51.658Z,637.33
2022-11-16T01:26:01.657Z,637.35
2022-11-16T01:26:11.665Z,637.34
2022-11-16T01:26:21.645Z,637.44
2022-11-16T01:26:31.659Z,637.42
2022-11-16T01:26:41.659Z,637.45
2022-11-16T01:26:51.662Z,637.45
2022-11-16T01:27:01.664Z,637.45
2022-11-16T01:27:11.665Z,637.56
2022-11-16T01:27:21.664Z,637.62
2022-11-16T01:27:31.668Z,637.64
2022-11-16T01:27:41.667Z,637.77
2022-11-16T01:27:51.670Z,637.87
2022-11-16T01:28:01.670Z,637.83
2022-11-16T01:28:11.670Z,637.81
2022-11-16T01:28:21.737Z,637.74
2022-11-16T01:28:32.206Z,637.70
2022-11-16T01:28:41.676Z,637.59
2022-11-16T01:28:51.674Z,637.72
2022-11-16T01:29:01.674Z,637.77
2022-11-16T01:29:11.677Z,637.80
2022-11-16T01:29:21.677Z,637.93
2022-11-16T01:29:31.679Z,637.98
2022-11-16T01:29:41.681Z,637.89
2022-11-16T01:29:51.680Z,637.95
2022-11-16T01:30:01.681Z,637.89
2022-11-16T01:30:11.707Z,637.94
2022-11-16T01:30:21.683Z,637.95
2022-11-16T01:30:31.690Z,637.95
2022-11-16T01:30:41.683Z,638.22
2022-11-16T01:30:51.687Z,638.11
2022-11-16T01:31:01.689Z,638.12
2022-11-16T01:31:11.697Z,638.17
2022-11-16T01:31:21.691Z,638.24
2022-11-16T01:31:31.692Z,638.45
2022-11-16T01:31:41.693Z,638.44
2022-11-16T01:31:51.693Z,638.35
2022-11-16T01:32:01.694Z,638.39
2022-11-16T01:32:11.693Z,638.50
2022-11-16T01:32:21.694Z,638.57
2022-11-16T01:32:31.695Z,638.53
2022-11-16T01:32:41.697Z,638.61
2022-11-16T01:32:51.697Z,638.57
2022-11-16T01:33:01.701Z,638.55
2022-11-16T01:33:11.699Z,638.65
2022-11-16T01:33:21.701Z,638.64
2022-11-16T01:33:31.704Z,638.64
2022-11-16T01:33:41.710Z,638.72
2022-11-16T01:33:51.711Z,638.73
2022-11-16T01:34:01.706Z,638.80
2022-11-16T01:34:11.709Z,638.95
2022-11-16T01:34:21.708Z,638.94
2022-11-16T01:34:31.713Z,638.95
2022-11-16T01:34:41.710Z,638.86
2022-11-16T01:34:51.708Z,639.28
2022-11-16T01:35:01.710Z,639.27
2022-11-16T01:35:11.711Z,639.06
2022-11-16T01:35:21.711Z,639.11
2022-11-16T01:35:31.722Z,639.13
2022-11-16T01:35:41.713Z,639.40
2022-11-16T01:35:51.714Z,639.41
2022-11-16T01:36:01.718Z,639.44
2022-11-16T01:36:11.717Z,639.39
2022-11-16T01:36:21.714Z,639.43
2022-11-16T01:36:31.716Z,639.54
2022-11-16T01:36:41.717Z,639.42
2022-11-16T01:36:51.719Z,639.34
2022-11-16T01:37:01.720Z,639.51
2022-11-16T01:37:11.720Z,639.58
2022-11-16T01:37:21.720Z,639.57
2022-11-16T01:37:31.733Z,639.36
2022-11-16T01:37:41.723Z,639.40
2022-11-16T01:37:51.705Z,639.34
2022-11-16T01:38:01.724Z,639.49
2022-11-16T01:38:11.723Z,639.72
2022-11-16T01:38:23.935Z,639.66
2022-11-16T01:38:33.064Z,639.57
2022-11-16T01:38:41.724Z,639.64
2022-11-16T01:38:51.729Z,639.58
2022-11-16T01:39:01.725Z,639.57
2022-11-16T01:39:11.731Z,639.51
2022-11-16T01:39:21.728Z,639.56
2022-11-16T01:39:31.727Z,639.99
2022-11-16T01:39:41.729Z,639.67
2022-11-16T01:39:51.729Z,639.68
2022-11-16T01:40:01.730Z,639.65
2022-11-16T01:40:11.730Z,639.82
2022-11-16T01:40:21.733Z,639.79
2022-11-16T01:40:31.734Z,639.73
2022-11-16T01:40:41.735Z,639.92
2022-11-16T01:40:51.737Z,639.93
2022-11-16T01:41:01.742Z,639.80
2022-11-16T01:41:11.739Z,639.90
2022-11-16T01:41:21.738Z,639.95
2022-11-16T01:41:31.742Z,639.88
2022-11-16T01:41:41.742Z,639.92
2022-11-16T01:41:51.741Z,639.93
2022-11-16T01:42:01.746Z,639.81
2022-11-16T01:42:11.749Z,639.74
2022-11-16T01:42:21.742Z,640.03
2022-11-16T01:42:31.744Z,640.04
2022-11-16T01:42:41.751Z,639.94
2022-11-16T01:42:51.746Z,640.04
2022-11-16T01:43:01.747Z,640.20
2022-11-16T01:43:11.748Z,640.01
2022-11-16T01:43:21.749Z,640.32
2022-11-16T01:43:31.752Z,640.30
2022-11-16T01:43:41.754Z,640.53
2022-11-16T01:43:51.766Z,640.49
2022-11-16T01:44:01.751Z,640.50
2022-11-16T01:44:11.756Z,640.10
2022-11-16T01:44:21.752Z,640.44
2022-11-16T01:44:31.752Z,640.57
2022-11-16T01:44:41.754Z,640.61
2022-11-16T01:44:51.757Z,640.60
2022-11-16T01:45:01.759Z,640.56
2022-11-16T01:45:11.757Z,640.63
2022-11-16T01:45:21.763Z,640.54
2022-11-16T01:45:31.762Z,640.70
2022-11-16T01:45:41.765Z,640.93
2022-11-16T01:45:51.767Z,640.74
2022-11-16T01:46:01.767Z,640.84
2022-11-16T01:46:11.767Z,640.99
2022-11-16T01:46:21.771Z,640.84
2022-11-16T01:46:31.771Z,640.63
2022-11-16T01:46:41.773Z,640.83
2022-11-16T01:46:51.772Z,640.77
2022-11-16T01:47:01.775Z,640.54
2022-11-16T01:47:11.774Z,640.67
2022-11-16T01:47:21.773Z,640.78
2022-11-16T01:47:31.776Z,640.71
2022-11-16T01:47:41.779Z,640.97
2022-11-16T01:47:51.819Z,641.14
2022-11-16T01:48:01.846Z,641.00
2022-11-16T01:48:11.848Z,641.01
2022-11-16T01:48:21.860Z,641.05
2022-11-16T01:48:32.301Z,641.01
2022-11-16T01:48:41.817Z,641.16
2022-11-16T01:48:51.813Z,641.35
2022-11-16T01:49:01.786Z,641.47
2022-11-16T01:49:11.783Z,641.45
2022-11-16T01:49:21.783Z,641.35
2022-11-16T01:49:31.801Z,641.50
2022-11-16T01:49:41.785Z,641.51
2022-11-16T01:49:51.786Z,641.39
2022-11-16T01:50:01.787Z,641.40
2022-11-16T01:50:11.787Z,641.33
2022-11-16T01:50:21.787Z,641.39
2022-11-16T01:50:31.787Z,641.41
2022-11-16T01:50:41.787Z,641.56
2022-11-16T01:50:51.788Z,641.61
2022-11-16T01:51:01.792Z,641.66
2022-11-16T01:51:11.790Z,641.64
2022-11-16T01:51:21.791Z,641.66
2022-11-16T01:51:31.791Z,641.94
2022-11-16T01:51:41.795Z,641.86
2022-11-16T01:51:51.793Z,641.86
2022-11-16T01:52:01.798Z,641.88
2022-11-16T01:52:11.798Z,641.76
2022-11-16T01:52:21.798Z,641.82
2022-11-16T01:52:31.799Z,641.57
2022-11-16T01:52:41.800Z,641.99
2022-11-16T01:52:51.798Z,641.89
2022-11-16T01:53:01.803Z,642.04
2022-11-16T01:53:11.803Z,642.00
2022-11-16T01:53:21.807Z,641.83
2022-11-16T01:53:31.807Z,641.89
2022-11-16T01:53:41.802Z,642.25
2022-11-16T01:53:51.803Z,642.14
2022-11-16T01:54:01.805Z,641.96
2022-11-16T01:54:11.806Z,642.03
2022-11-16T01:54:21.807Z,642.15
2022-11-16T01:54:31.808Z,642.21
2022-11-16T01:54:41.811Z,642.11
2022-11-16T01:54:51.810Z,642.14
2022-11-16T01:55:01.811Z,642.15
2022-11-16T01:55:11.811Z,642.22
2022-11-16T01:55:21.813Z,642.10
2022-11-16T01:55:31.818Z,642.04
2022-11-16T01:55:41.816Z,642.22
2022-11-16T01:55:52.550Z,642.58
2022-11-16T01:56:01.817Z,642.14
2022-11-16T01:56:11.817Z,642.06
2022-11-16T01:56:21.820Z,642.22
2022-11-16T01:56:31.819Z,642.06
2022-11-16T01:56:41.821Z,642.33
2022-11-16T01:56:51.822Z,642.38
2022-11-16T01:57:01.822Z,642.27
2022-11-16T01:57:11.810Z,642.14
2022-11-16T01:57:21.826Z,642.26
2022-11-16T01:57:31.834Z,642.31
2022-11-16T01:57:41.826Z,642.45
2022-11-16T01:57:51.828Z,642.29
2022-11-16T01:58:01.827Z,642.29
2022-11-16T01:58:11.828Z,642.16
2022-11-16T01:58:21.831Z,642.23
2022-11-16T01:58:32.050Z,642.00
2022-11-16T01:58:41.830Z,642.02
2022-11-16T01:58:51.833Z,642.09
2022-11-16T01:59:01.836Z,642.10
2022-11-16T01:59:11.835Z,642.25
2022-11-16T01:59:21.835Z,642.19
2022-11-16T01:59:31.836Z,642.24
2022-11-16T01:59:41.840Z,642.24
2022-11-16T01:59:51.839Z,642.03
2022-11-16T02:00:01.843Z,642.32
2022-11-16T02:00:11.845Z,642.21
2022-11-16T02:00:21.844Z,642.12
2022-11-16T02:00:31.842Z,642.22
2022-11-16T02:00:41.900Z,642.17
2022-11-16T02:00:51.891Z,642.17
2022-11-16T02:01:01.871Z,642.02
2022-11-16T02:01:11.927Z,642.29
2022-11-16T02:01:21.897Z,642.34
2022-11-16T02:01:31.919Z,642.37
2022-11-16T02:01:41.906Z,642.12
2022-11-16T02:01:51.850Z,642.07
2022-11-16T02:02:01.851Z,642.25
2022-11-16T02:02:11.851Z,642.30
2022-11-16T02:02:21.851Z,642.09
2022-11-16T02:02:31.854Z,642.01
2022-11-16T02:02:41.875Z,641.96
2022-11-16T02:02:51.855Z,642.05
2022-11-16T02:03:01.866Z,642.00
2022-11-16T02:03:11.864Z,641.94
2022-11-16T02:03:21.842Z,641.96
2022-11-16T02:03:31.863Z,641.95
2022-11-16T02:03:41.862Z,641.89
2022-11-16T02:03:51.879Z,641.84
2022-11-16T02:04:01.868Z,642.00
2022-11-16T02:04:11.869Z,642.04
2022-11-16T02:04:21.865Z,641.86
2022-11-16T02:04:31.866Z,641.98
2022-11-16T02:04:41.867Z,641.81